Time;durP1;ratioP1;P1;durP2;ratioP2;P2;SDS_P1;SDS_P2;PMS_P1;PMS_P2;Temp;Humidity;BMP_temperature;BMP_pressure;BME280_temperature;BME280_humidity;BME280_pressure;Samples;Min_cycle;Max_cycle;Signal;HPM_P1;HPM_P2
2024/01/18 00:00:55;;;;;;;;;;;-2.10;99.90;;;;;;5072434;28;19919;-83
2024/01/18 00:03:21;;;;;;;;;;;-2.10;99.90;;;;;;5072340;28;20023;-82
2024/01/18 00:05:46;;;;;;;;;;;-2.20;99.90;;;;;;5073026;28;19954;-82
2024/01/18 00:08:12;;;;;;;;;;;-2.10;99.90;;;;;;5053961;28;20281;-82
2024/01/18 00:10:37;;;;;;;;;;;-2.20;99.90;;;;;;5070976;28;20452;-82
2024/01/18 00:13:03;;;;;;;;;;;-2.20;99.90;;;;;;5053259;28;20272;-83
2024/01/18 00:15:35;;;;;;;;;;;-2.30;99.90;;;;;;5072074;28;20319;-82
2024/01/18 00:18:03;;;;;;;;;;;-2.20;99.90;;;;;;5073307;28;19924;-82
2024/01/18 00:20:29;;;;;;;;;;;-2.10;99.90;;;;;;5069554;28;19908;-82
2024/01/18 00:22:55;;;;;;;;;;;-2.10;99.90;;;;;;5071562;28;19927;-82
2024/01/18 00:25:21;;;;;;;;;;;-2.20;99.90;;;;;;5070840;28;19999;-82
2024/01/18 00:27:49;;;;;;;;;;;-2.10;99.90;;;;;;5072261;28;19908;-82
2024/01/18 00:30:17;;;;;;;;;;;-2.10;99.90;;;;;;5071564;28;20389;-83
2024/01/18 00:32:42;;;;;;;;;;;-2.20;99.90;;;;;;5071044;28;19912;-82
2024/01/18 00:35:08;;;;;;;;;;;-2.20;99.90;;;;;;5070499;28;19909;-82
2024/01/18 00:37:34;;;;;;;;;;;-2.10;99.90;;;;;;5064133;28;19914;-82
2024/01/18 00:40:01;;;;;;;;;;;-2.30;99.90;;;;;;5070864;28;19930;-83
2024/01/18 00:42:32;;;;;;;;;;;-2.20;99.90;;;;;;5069888;28;19904;-83
2024/01/18 00:44:58;;;;;;;;;;;-2.20;99.90;;;;;;5072187;28;19989;-82
2024/01/18 00:47:23;;;;;;;;;;;-2.20;99.90;;;;;;5069812;28;20319;-82
2024/01/18 00:49:49;;;;;;;;;;;-2.20;99.90;;;;;;5068459;28;20354;-82
2024/01/18 00:52:14;;;;;;;;;;;-2.30;99.90;;;;;;5053338;28;19939;-82
2024/01/18 00:54:43;;;;;;;;;;;-2.30;99.90;;;;;;5071234;28;20455;-82
2024/01/18 00:57:09;;;;;;;;;;;-2.30;99.90;;;;;;5071170;28;19912;-82
2024/01/18 01:02:20;;;;;;;;;;;-2.40;99.90;;;;;;5066859;28;19935;-82
2024/01/18 01:04:45;;;;;;;;;;;-2.50;99.90;;;;;;5053849;28;20010;-81
2024/01/18 01:07:11;;;;;;;;;;;-2.50;99.90;;;;;;5072136;28;19920;-82
2024/01/18 01:09:36;;;;;;;;;;;-2.50;99.90;;;;;;5068442;28;19916;-82
2024/01/18 01:12:02;;;;;;;;;;;-2.40;99.90;;;;;;5070674;28;19996;-82
2024/01/18 01:14:28;;;;;;;;;;;-2.50;99.90;;;;;;5051889;28;19909;-82
2024/01/18 01:16:53;;;;;;;;;;;-2.40;99.90;;;;;;5071570;28;19912;-82
2024/01/18 01:22:05;;;;;;;;;;;-2.40;99.90;;;;;;5070611;28;19957;-82
2024/01/18 01:24:31;;;;;;;;;;;-2.40;99.90;;;;;;5070252;28;19953;-83
2024/01/18 01:26:56;;;;;;;;;;;-2.40;99.90;;;;;;5071304;28;20345;-82
2024/01/18 01:29:22;;;;;;;;;;;-2.40;99.90;;;;;;5071794;28;19905;-82
2024/01/18 01:31:51;;;;;;;;;;;-2.50;99.90;;;;;;5070383;28;19908;-82
2024/01/18 01:34:17;;;;;;;;;;;-2.40;99.90;;;;;;5069798;28;20359;-82
2024/01/18 01:36:42;;;;;;;;;;;-2.50;99.90;;;;;;5068555;28;19959;-83
2024/01/18 01:39:08;;;;;;;;;;;-2.60;99.90;;;;;;5071171;28;20281;-82
2024/01/18 01:41:34;;;;;;;;;;;-2.60;99.90;;;;;;5071124;28;20309;-82
2024/01/18 01:44:00;;;;;;;;;;;-2.70;99.90;;;;;;5065718;28;19923;-82
2024/01/18 01:46:26;;;;;;;;;;;-2.70;99.90;;;;;;5060257;28;20664;-82
2024/01/18 01:48:55;;;;;;;;;;;-2.70;99.90;;;;;;5052845;28;20268;-82
2024/01/18 01:51:21;;;;;;;;;;;-2.70;99.90;;;;;;5069164;28;21504;-82
2024/01/18 01:53:54;;;;;;;;;;;-2.70;99.90;;;;;;5071213;28;19958;-82
2024/01/18 01:56:20;;;;;;;;;;;-2.80;99.90;;;;;;5051817;28;19919;-82
2024/01/18 01:58:46;;;;;;;;;;;-2.70;99.90;;;;;;5069995;28;20375;-82
2024/01/18 02:01:11;;;;;;;;;;;-2.70;99.90;;;;;;5070426;28;20054;-82
2024/01/18 02:03:37;;;;;;;;;;;-2.90;99.90;;;;;;5052485;28;20018;-82
2024/01/18 02:06:03;;;;;;;;;;;-2.90;99.90;;;;;;5069257;28;20367;-82
2024/01/18 02:08:28;;;;;;;;;;;-3.00;99.90;;;;;;5069478;28;19909;-81
2024/01/18 02:10:54;;;;;;;;;;;-3.00;99.90;;;;;;5050444;28;19923;-82
2024/01/18 02:13:20;;;;;;;;;;;-3.20;99.90;;;;;;5070694;28;20007;-82
2024/01/18 02:15:46;;;;;;;;;;;-3.00;99.90;;;;;;5051296;28;19991;-82
2024/01/18 02:18:12;;;;;;;;;;;-2.80;99.90;;;;;;5070456;28;20015;-82
2024/01/18 02:20:37;;;;;;;;;;;-2.90;99.90;;;;;;5048493;28;20376;-82
2024/01/18 02:23:03;;;;;;;;;;;-3.00;99.90;;;;;;5067783;28;20019;-82
2024/01/18 02:25:29;;;;;;;;;;;-3.20;99.90;;;;;;5063583;28;19909;-82
2024/01/18 02:27:57;;;;;;;;;;;-3.20;99.90;;;;;;5070010;28;20564;-82
2024/01/18 02:30:23;;;;;;;;;;;-3.40;99.90;;;;;;5051277;28;19916;-82
2024/01/18 02:32:49;;;;;;;;;;;-3.40;99.90;;;;;;5070554;28;19904;-82
2024/01/18 02:35:14;;;;;;;;;;;-3.40;99.90;;;;;;5070844;28;20304;-82
2024/01/18 02:37:40;;;;;;;;;;;-3.20;99.90;;;;;;5067891;28;20280;-82
2024/01/18 02:40:06;;;;;;;;;;;-3.10;99.90;;;;;;5052066;28;19912;-82
2024/01/18 02:42:32;;;;;;;;;;;-3.20;99.90;;;;;;5063429;28;20001;-82
2024/01/18 02:44:57;;;;;;;;;;;-3.00;99.90;;;;;;5069972;28;20356;-82
2024/01/18 02:47:27;;;;;;;;;;;-3.20;99.90;;;;;;5051727;28;19909;-82
2024/01/18 02:49:53;;;;;;;;;;;-3.20;99.90;;;;;;5069673;28;19931;-82
2024/01/18 02:52:18;;;;;;;;;;;-3.40;99.90;;;;;;5067471;28;20348;-82
2024/01/18 02:54:44;;;;;;;;;;;-3.50;99.90;;;;;;5061726;28;20459;-82
2024/01/18 02:57:09;;;;;;;;;;;-3.50;99.90;;;;;;5057128;28;19916;-82
2024/01/18 02:59:35;;;;;;;;;;;-3.60;99.90;;;;;;5068802;28;19916;-82
2024/01/18 03:02:00;;;;;;;;;;;-3.40;99.90;;;;;;5050050;28;19917;-82
2024/01/18 03:04:26;;;;;;;;;;;-3.50;99.90;;;;;;5050688;28;19920;-82
2024/01/18 03:06:51;;;;;;;;;;;-3.30;99.90;;;;;;5070366;28;19911;-82
2024/01/18 03:09:17;;;;;;;;;;;-3.10;99.90;;;;;;5065859;28;19916;-82
2024/01/18 03:11:42;;;;;;;;;;;-3.10;99.90;;;;;;5068015;28;20371;-82
2024/01/18 03:14:08;;;;;;;;;;;-3.20;99.90;;;;;;5051360;28;19904;-82
2024/01/18 03:16:36;;;;;;;;;;;-3.30;99.90;;;;;;5068152;28;19962;-82
2024/01/18 03:19:02;;;;;;;;;;;-3.60;99.90;;;;;;5068726;28;19971;-82
2024/01/18 03:21:27;;;;;;;;;;;-3.50;99.90;;;;;;5070390;28;20743;-82
2024/01/18 03:23:53;;;;;;;;;;;-3.70;99.90;;;;;;5073053;28;19916;-82
2024/01/18 03:26:18;;;;;;;;;;;-3.80;99.90;;;;;;5053713;28;20356;-82
2024/01/18 03:28:43;;;;;;;;;;;-3.80;99.90;;;;;;5055200;28;20048;-82
2024/01/18 03:31:11;;;;;;;;;;;-3.70;99.90;;;;;;5073387;28;20007;-82
2024/01/18 03:33:37;;;;;;;;;;;-3.70;99.90;;;;;;5073465;28;19909;-82
2024/01/18 03:36:03;;;;;;;;;;;-3.60;99.90;;;;;;5072668;28;19927;-82
2024/01/18 03:38:28;;;;;;;;;;;-3.60;99.90;;;;;;5073355;28;19908;-82
2024/01/18 03:40:54;;;;;;;;;;;-3.60;99.90;;;;;;5073435;28;20498;-82
2024/01/18 03:43:19;;;;;;;;;;;-3.70;99.90;;;;;;5068002;28;19990;-82
2024/01/18 03:45:46;;;;;;;;;;;-3.70;99.90;;;;;;5072437;28;19908;-82
2024/01/18 03:48:12;;;;;;;;;;;-3.60;99.90;;;;;;5070919;28;20038;-81
2024/01/18 03:50:37;;;;;;;;;;;-3.60;99.90;;;;;;5072634;28;19987;-82
2024/01/18 03:53:03;;;;;;;;;;;-3.40;99.90;;;;;;5072827;28;19904;-82
2024/01/18 03:55:28;;;;;;;;;;;-3.40;99.90;;;;;;5072885;28;20073;-82
2024/01/18 03:57:53;;;;;;;;;;;-3.40;99.90;;;;;;5072968;28;20044;-82
2024/01/18 04:00:19;;;;;;;;;;;-3.30;99.90;;;;;;5070391;28;19916;-82
2024/01/18 04:02:44;;;;;;;;;;;-3.30;99.90;;;;;;5071463;28;19917;-82
2024/01/18 04:05:10;;;;;;;;;;;-3.20;99.90;;;;;;5054481;28;19915;-82
2024/01/18 04:07:38;;;;;;;;;;;-3.30;99.90;;;;;;5073290;28;19935;-82
2024/01/18 04:10:03;;;;;;;;;;;-3.30;99.90;;;;;;5071529;28;19986;-82
2024/01/18 04:12:29;;;;;;;;;;;-3.20;99.90;;;;;;5072312;28;20493;-82
2024/01/18 04:14:54;;;;;;;;;;;-3.40;99.90;;;;;;5073363;28;19934;-82
2024/01/18 04:17:20;;;;;;;;;;;-3.60;99.90;;;;;;5061792;28;20368;-82
2024/01/18 04:19:45;;;;;;;;;;;-3.50;99.90;;;;;;5071743;28;20555;-82
2024/01/18 04:22:11;;;;;;;;;;;-3.80;99.90;;;;;;5072725;28;19913;-81
2024/01/18 04:24:36;;;;;;;;;;;-4.00;99.90;;;;;;5053271;28;19966;-82
2024/01/18 04:27:01;;;;;;;;;;;-3.90;99.90;;;;;;5072873;28;20610;-82
2024/01/18 04:29:28;;;;;;;;;;;-3.90;99.90;;;;;;5054798;28;19909;-82
2024/01/18 04:31:54;;;;;;;;;;;-3.80;99.90;;;;;;5052452;28;20003;-82
2024/01/18 04:34:19;;;;;;;;;;;-4.00;99.90;;;;;;5069804;28;20007;-82
2024/01/18 04:36:44;;;;;;;;;;;-3.90;99.90;;;;;;5072337;28;19995;-82
2024/01/18 04:39:10;;;;;;;;;;;-3.90;99.90;;;;;;5071120;28;19958;-82
2024/01/18 04:41:35;;;;;;;;;;;-3.90;99.90;;;;;;5067521;28;20396;-81
2024/01/18 04:44:01;;;;;;;;;;;-3.90;99.90;;;;;;5070453;28;19974;-82
2024/01/18 04:46:27;;;;;;;;;;;-3.90;99.90;;;;;;5053542;28;19909;-82
2024/01/18 04:48:52;;;;;;;;;;;-3.90;99.90;;;;;;5070889;28;20412;-82
2024/01/18 04:51:19;;;;;;;;;;;-3.90;99.90;;;;;;5070193;28;19957;-82
2024/01/18 04:53:45;;;;;;;;;;;-3.90;99.90;;;;;;5071731;28;19978;-81
2024/01/18 04:56:10;;;;;;;;;;;-3.80;99.90;;;;;;5068388;28;19915;-82
2024/01/18 04:58:36;;;;;;;;;;;-4.00;99.90;;;;;;5070852;28;19915;-82
2024/01/18 05:01:01;;;;;;;;;;;-4.20;99.90;;;;;;5071161;28;20396;-82
2024/01/18 05:03:27;;;;;;;;;;;-4.10;99.90;;;;;;5052606;28;20007;-82
2024/01/18 05:05:53;;;;;;;;;;;-4.00;99.90;;;;;;5072331;28;19904;-82
2024/01/18 05:08:18;;;;;;;;;;;-3.90;99.90;;;;;;5050718;28;20246;-82
2024/01/18 05:10:43;;;;;;;;;;;-4.10;99.90;;;;;;5070596;28;19928;-82
2024/01/18 05:13:09;;;;;;;;;;;-4.10;99.90;;;;;;5071170;28;19916;-81
2024/01/18 05:15:34;;;;;;;;;;;-4.00;99.90;;;;;;5071666;28;19920;-82
2024/01/18 05:18:00;;;;;;;;;;;-4.10;99.90;;;;;;5071767;28;19962;-82
2024/01/18 05:20:26;;;;;;;;;;;-4.10;99.90;;;;;;5068142;28;19926;-82
2024/01/18 05:22:51;;;;;;;;;;;-4.10;99.90;;;;;;5070104;28;19917;-82
2024/01/18 05:25:17;;;;;;;;;;;-4.10;99.90;;;;;;5052575;28;20391;-82
2024/01/18 05:27:42;;;;;;;;;;;-4.00;99.90;;;;;;5071373;28;19912;-82
2024/01/18 05:30:08;;;;;;;;;;;-3.90;99.90;;;;;;5070429;28;19915;-82
2024/01/18 05:32:33;;;;;;;;;;;-3.90;99.90;;;;;;5071165;28;19908;-81
2024/01/18 05:35:01;;;;;;;;;;;-3.90;99.90;;;;;;5053732;28;19916;-81
2024/01/18 05:37:26;;;;;;;;;;;-4.20;99.90;;;;;;5068812;28;19919;-81
2024/01/18 05:39:52;;;;;;;;;;;-4.40;99.90;;;;;;5071426;28;19908;-81
2024/01/18 05:42:22;;;;;;;;;;;-4.50;99.90;;;;;;5072649;28;19919;-82
2024/01/18 05:44:48;;;;;;;;;;;-4.50;99.90;;;;;;5069999;28;20261;-82
2024/01/18 05:47:14;;;;;;;;;;;-4.50;99.90;;;;;;5070225;28;19916;-81
2024/01/18 05:49:39;;;;;;;;;;;-4.40;99.90;;;;;;5066325;28;20673;-82
2024/01/18 05:52:05;;;;;;;;;;;-4.50;99.90;;;;;;5050227;28;20291;-81
2024/01/18 05:54:31;;;;;;;;;;;-4.30;99.90;;;;;;5067158;28;20284;-82
2024/01/18 05:56:56;;;;;;;;;;;-4.30;99.90;;;;;;5068375;28;20011;-81
2024/01/18 05:59:21;;;;;;;;;;;-4.40;99.90;;;;;;5051258;28;20356;-82
2024/01/18 06:01:47;;;;;;;;;;;-4.40;99.90;;;;;;5049241;28;19947;-81
2024/01/18 06:04:13;;;;;;;;;;;-4.50;99.90;;;;;;5051357;28;20356;-81
2024/01/18 06:06:39;;;;;;;;;;;-4.30;99.90;;;;;;5069500;28;19912;-81
2024/01/18 06:09:04;;;;;;;;;;;-4.20;99.90;;;;;;5051908;28;19917;-81
2024/01/18 06:11:30;;;;;;;;;;;-4.10;99.90;;;;;;5047951;28;19935;-82
2024/01/18 06:13:55;;;;;;;;;;;-4.00;99.90;;;;;;5052013;28;19912;-82
2024/01/18 06:16:21;;;;;;;;;;;-4.00;99.90;;;;;;5051484;28;19919;-82
2024/01/18 06:18:46;;;;;;;;;;;-4.20;99.90;;;;;;5066399;28;20318;-82
2024/01/18 06:21:12;;;;;;;;;;;-4.20;99.90;;;;;;5066238;28;19908;-81
2024/01/18 06:23:37;;;;;;;;;;;-4.10;99.90;;;;;;5070603;28;19924;-82
2024/01/18 06:26:07;;;;;;;;;;;-3.90;99.90;;;;;;5069676;28;19916;-82
2024/01/18 06:28:32;;;;;;;;;;;-3.90;99.90;;;;;;5069795;28;19915;-82
2024/01/18 06:30:58;;;;;;;;;;;-4.10;99.90;;;;;;5068520;28;20296;-82
2024/01/18 06:33:23;;;;;;;;;;;-4.20;99.90;;;;;;5064805;28;19953;-81
2024/01/18 06:35:49;;;;;;;;;;;-4.40;99.90;;;;;;5048658;28;19959;-81
2024/01/18 06:38:14;;;;;;;;;;;-4.50;99.90;;;;;;5061498;28;19924;-81
2024/01/18 06:40:40;;;;;;;;;;;-4.50;99.90;;;;;;5065710;28;19920;-81
2024/01/18 06:43:06;;;;;;;;;;;-4.30;99.90;;;;;;5068829;28;19916;-81
2024/01/18 06:45:31;;;;;;;;;;;-4.60;99.90;;;;;;5068819;28;19912;-81
2024/01/18 06:47:57;;;;;;;;;;;-4.50;99.90;;;;;;5069277;28;19908;-81
2024/01/18 06:50:22;;;;;;;;;;;-4.70;99.90;;;;;;5069677;28;19908;-81
2024/01/18 06:52:48;;;;;;;;;;;-4.50;99.90;;;;;;5068877;28;19938;-81
2024/01/18 06:55:14;;;;;;;;;;;-4.40;99.90;;;;;;5048879;28;19991;-81
2024/01/18 06:57:39;;;;;;;;;;;-4.30;99.90;;;;;;5050324;28;19912;-82
2024/01/18 07:00:05;;;;;;;;;;;-4.20;99.90;;;;;;5068723;28;20387;-81
2024/01/18 07:02:31;;;;;;;;;;;-4.30;99.90;;;;;;5063820;28;19913;-81
2024/01/18 07:04:56;;;;;;;;;;;-4.60;99.90;;;;;;5067743;28;19919;-81
2024/01/18 07:07:25;;;;;;;;;;;-4.60;99.90;;;;;;5069245;28;20014;-82
2024/01/18 07:09:50;;;;;;;;;;;-4.40;99.90;;;;;;5069119;28;19916;-82
2024/01/18 07:12:16;;;;;;;;;;;-4.30;99.90;;;;;;5050941;28;20351;-83
2024/01/18 07:14:42;;;;;;;;;;;-4.30;99.90;;;;;;5068296;28;20360;-82
2024/01/18 07:17:08;;;;;;;;;;;-4.20;99.90;;;;;;5066131;28;19928;-82
2024/01/18 07:19:33;;;;;;;;;;;-4.50;99.90;;;;;;5060936;28;19908;-82
2024/01/18 07:21:59;;;;;;;;;;;-4.50;99.90;;;;;;5067550;28;19912;-83
2024/01/18 07:24:27;;;;;;;;;;;-4.30;99.90;;;;;;5064778;28;19968;-83
2024/01/18 07:26:53;;;;;;;;;;;-4.30;99.90;;;;;;5066369;28;20272;-83
2024/01/18 07:29:18;;;;;;;;;;;-4.50;99.90;;;;;;5070201;28;19995;-83
2024/01/18 07:31:43;;;;;;;;;;;-4.40;99.90;;;;;;5069177;28;19999;-82
2024/01/18 07:34:09;;;;;;;;;;;-4.40;99.90;;;;;;5067623;28;19923;-83
2024/01/18 07:36:34;;;;;;;;;;;-4.50;99.90;;;;;;5069747;28;19916;-82
2024/01/18 07:39:00;;;;;;;;;;;-4.60;99.90;;;;;;5069385;28;19916;-83
2024/01/18 07:41:25;;;;;;;;;;;-4.50;99.90;;;;;;5050502;28;19912;-81
2024/01/18 07:43:51;;;;;;;;;;;-4.20;99.90;;;;;;5068707;28;19960;-82
2024/01/18 07:46:16;;;;;;;;;;;-4.10;99.90;;;;;;5066308;28;19912;-83
2024/01/18 07:48:42;;;;;;;;;;;-4.00;99.90;;;;;;5067642;28;20365;-83
2024/01/18 07:51:07;;;;;;;;;;;-4.10;99.90;;;;;;5067219;28;19908;-81
2024/01/18 07:53:33;;;;;;;;;;;-4.20;99.90;;;;;;5066415;28;19920;-83
2024/01/18 07:55:58;;;;;;;;;;;-4.20;99.90;;;;;;5068370;28;19909;-82
2024/01/18 07:58:23;;;;;;;;;;;-4.10;99.90;;;;;;5066539;28;19931;-83
2024/01/18 08:00:50;;;;;;;;;;;-4.20;99.90;;;;;;5068139;28;19912;-83
2024/01/18 08:03:15;;;;;;;;;;;-4.20;99.90;;;;;;5067070;28;19920;-83
2024/01/18 08:05:41;;;;;;;;;;;-4.00;99.90;;;;;;5047159;28;20697;-84
2024/01/18 08:08:06;;;;;;;;;;;-4.00;99.90;;;;;;5067226;28;19908;-85
2024/01/18 08:10:32;;;;;;;;;;;-3.90;99.90;;;;;;5061940;28;19959;-83
2024/01/18 08:12:59;;;;;;;;;;;-3.70;99.90;;;;;;5068992;28;20015;-84
2024/01/18 08:15:24;;;;;;;;;;;-3.70;99.90;;;;;;5071746;28;19970;-84
2024/01/18 08:17:50;;;;;;;;;;;-3.60;99.90;;;;;;5054673;28;19909;-85
2024/01/18 08:20:15;;;;;;;;;;;-3.50;99.90;;;;;;5054642;28;20007;-85
2024/01/18 08:22:41;;;;;;;;;;;-3.30;99.90;;;;;;5071719;28;19912;-84
2024/01/18 08:25:07;;;;;;;;;;;-3.30;99.90;;;;;;5072738;28;19916;-84
2024/01/18 08:27:33;;;;;;;;;;;-3.20;99.90;;;;;;5053027;28;19909;-85
2024/01/18 08:29:58;;;;;;;;;;;-3.00;99.90;;;;;;5051515;28;19999;-85
2024/01/18 08:32:31;;;;;;;;;;;-2.90;99.90;;;;;;5052776;28;19908;-84
2024/01/18 08:34:57;;;;;;;;;;;-2.80;99.90;;;;;;5068833;28;19909;-85
2024/01/18 08:37:22;;;;;;;;;;;-2.70;99.90;;;;;;5054640;28;20421;-84
2024/01/18 08:39:48;;;;;;;;;;;-2.50;99.90;;;;;;5066410;28;19919;-85
2024/01/18 08:42:14;;;;;;;;;;;-2.40;99.90;;;;;;5071238;28;19912;-84
2024/01/18 08:44:45;;;;;;;;;;;-2.40;99.90;;;;;;5061053;28;20301;-84
2024/01/18 08:47:11;;;;;;;;;;;-2.20;99.90;;;;;;5063652;28;20368;-82
2024/01/18 08:49:37;;;;;;;;;;;-2.10;99.90;;;;;;5053530;28;19959;-81
2024/01/18 08:52:02;;;;;;;;;;;-2.00;99.90;;;;;;5053156;28;19908;-80
2024/01/18 08:54:28;;;;;;;;;;;-1.80;99.90;;;;;;5061059;28;20351;-80
2024/01/18 08:56:53;;;;;;;;;;;-1.70;99.90;;;;;;5061147;28;19912;-79
2024/01/18 08:59:20;;;;;;;;;;;-1.60;99.90;;;;;;5054373;28;20019;-80
2024/01/18 09:01:55;;;;;;;;;;;-1.20;99.90;;;;;;5055227;28;19919;-79
2024/01/18 09:04:20;;;;;;;;;;;-1.00;99.90;;;;;;5061557;28;19916;-79
2024/01/18 09:06:46;;;;;;;;;;;-0.80;99.90;;;;;;5062204;28;20296;-79
2024/01/18 09:09:11;;;;;;;;;;;-0.60;99.90;;;;;;5057092;28;20019;-79
2024/01/18 09:11:37;;;;;;;;;;;-0.80;99.90;;;;;;5046717;28;20001;-80
2024/01/18 09:14:03;;;;;;;;;;;-0.90;99.90;;;;;;5072503;28;19908;-79
2024/01/18 09:16:30;;;;;;;;;;;-1.10;99.90;;;;;;5071260;28;19908;-79
2024/01/18 09:18:56;;;;;;;;;;;-1.00;99.90;;;;;;5054029;28;19912;-79
2024/01/18 09:21:21;;;;;;;;;;;-1.20;99.90;;;;;;5070680;28;20348;-79
2024/01/18 09:23:47;;;;;;;;;;;-1.30;99.90;;;;;;5069344;28;19916;-80
2024/01/18 09:26:12;;;;;;;;;;;-1.50;99.90;;;;;;5069913;28;19999;-80
2024/01/18 09:28:45;;;;;;;;;;;-1.50;99.90;;;;;;5070007;28;19996;-79
2024/01/18 09:31:10;;;;;;;;;;;-1.50;99.90;;;;;;5067563;28;20327;-79
2024/01/18 09:33:37;;;;;;;;;;;-1.10;99.90;;;;;;5060760;28;19916;-80
2024/01/18 09:36:04;;;;;;;;;;;-0.80;99.90;;;;;;5049899;28;20101;-79
2024/01/18 09:38:29;;;;;;;;;;;-0.90;99.90;;;;;;5066467;28;19916;-80
2024/01/18 09:41:00;;;;;;;;;;;-0.80;99.90;;;;;;5063353;28;19916;-80
2024/01/18 09:43:25;;;;;;;;;;;-0.60;99.90;;;;;;5065807;28;19922;-80
2024/01/18 09:45:52;;;;;;;;;;;-0.50;99.90;;;;;;5048546;28;19912;-80
2024/01/18 09:48:17;;;;;;;;;;;-0.40;99.90;;;;;;5065648;28;20000;-80
2024/01/18 09:50:46;;;;;;;;;;;-0.60;99.90;;;;;;5045425;28;20006;-80
2024/01/18 09:53:12;;;;;;;;;;;-0.60;99.90;;;;;;5066554;28;19908;-80
2024/01/18 09:55:38;;;;;;;;;;;-0.60;99.90;;;;;;5058154;28;19908;-80
2024/01/18 09:58:07;;;;;;;;;;;-0.50;99.90;;;;;;5047859;28;20365;-81
2024/01/18 10:00:34;;;;;;;;;;;-0.10;99.90;;;;;;5069289;28;19916;-81
2024/01/18 10:02:59;;;;;;;;;;;0.20;99.90;;;;;;5067927;28;19923;-81
2024/01/18 10:05:25;;;;;;;;;;;0.10;99.90;;;;;;5063963;28;20030;-81
2024/01/18 10:07:51;;;;;;;;;;;0.30;99.90;;;;;;5068080;28;19916;-81
2024/01/18 10:10:18;;;;;;;;;;;0.30;99.90;;;;;;5045996;28;20341;-81
2024/01/18 10:12:44;;;;;;;;;;;0.30;99.90;;;;;;5067589;28;19922;-82
2024/01/18 10:15:10;;;;;;;;;;;0.50;99.90;;;;;;5040065;28;19999;-81
2024/01/18 10:17:37;;;;;;;;;;;0.60;99.90;;;;;;5067129;28;20353;-81
2024/01/18 10:20:04;;;;;;;;;;;0.60;99.90;;;;;;5069469;28;19908;-81
2024/01/18 10:22:29;;;;;;;;;;;0.80;99.90;;;;;;5051389;28;19913;-82
2024/01/18 10:24:55;;;;;;;;;;;1.00;99.90;;;;;;5068371;28;19951;-81
2024/01/18 10:27:21;;;;;;;;;;;1.30;99.90;;;;;;5064962;28;19912;-81
2024/01/18 10:29:48;;;;;;;;;;;1.40;99.90;;;;;;5069813;28;19954;-81
2024/01/18 10:32:16;;;;;;;;;;;1.40;99.90;;;;;;5068233;28;19908;-81
2024/01/18 10:34:42;;;;;;;;;;;1.40;99.90;;;;;;5066355;28;19924;-81
2024/01/18 10:37:11;;;;;;;;;;;1.50;99.90;;;;;;5067796;28;19931;-81
2024/01/18 10:39:39;;;;;;;;;;;1.80;99.90;;;;;;5069379;28;20003;-82
2024/01/18 10:42:07;;;;;;;;;;;2.10;99.90;;;;;;5050438;28;19913;-82
2024/01/18 10:44:37;;;;;;;;;;;2.80;99.90;;;;;;5066856;28;19916;-82
2024/01/18 10:47:06;;;;;;;;;;;2.80;99.90;;;;;;5069601;28;19908;-82
2024/01/18 10:49:33;;;;;;;;;;;3.20;99.90;;;;;;5050720;28;19909;-82
2024/01/18 10:51:59;;;;;;;;;;;3.50;99.90;;;;;;5063334;28;20357;-83
2024/01/18 10:54:25;;;;;;;;;;;3.60;99.90;;;;;;5046790;28;19938;-84
2024/01/18 10:56:50;;;;;;;;;;;4.00;99.90;;;;;;5066157;28;19920;-84
2024/01/18 10:59:16;;;;;;;;;;;3.90;99.90;;;;;;5069311;28;19920;-85
2024/01/18 11:01:41;;;;;;;;;;;3.80;99.90;;;;;;5051354;28;19908;-84
2024/01/18 11:04:06;;;;;;;;;;;3.90;99.90;;;;;;5067527;28;19939;-84
2024/01/18 11:06:33;;;;;;;;;;;3.80;99.90;;;;;;5064943;28;19997;-84
2024/01/18 11:08:59;;;;;;;;;;;4.00;99.90;;;;;;5056383;28;20690;-86
2024/01/18 11:11:25;;;;;;;;;;;4.00;99.90;;;;;;5051586;28;20019;-85
2024/01/18 11:13:51;;;;;;;;;;;3.80;99.90;;;;;;5051195;28;19919;-85
2024/01/18 11:16:17;;;;;;;;;;;4.00;99.90;;;;;;5067282;28;19908;-84
2024/01/18 11:18:48;;;;;;;;;;;4.00;99.90;;;;;;5070189;28;20414;-83
2024/01/18 11:21:14;;;;;;;;;;;3.50;99.90;;;;;;5036596;28;19908;-83
2024/01/18 11:23:40;;;;;;;;;;;3.90;99.90;;;;;;5058670;28;19916;-85
2024/01/18 11:26:07;;;;;;;;;;;3.90;99.90;;;;;;5068931;28;19920;-86
2024/01/18 11:28:33;;;;;;;;;;;3.80;99.90;;;;;;5062959;28;19966;-87
2024/01/18 11:31:02;;;;;;;;;;;4.10;99.90;;;;;;5067201;28;19951;-85
2024/01/18 11:33:28;;;;;;;;;;;4.00;99.90;;;;;;5065658;28;19908;-86
2024/01/18 11:35:54;;;;;;;;;;;3.90;99.90;;;;;;5064892;28;19912;-85
2024/01/18 11:38:20;;;;;;;;;;;3.70;99.90;;;;;;5066214;28;20348;-82
2024/01/18 11:40:46;;;;;;;;;;;3.70;99.90;;;;;;5043322;28;19919;-82
2024/01/18 11:43:12;;;;;;;;;;;3.90;99.90;;;;;;5046812;28;19965;-84
2024/01/18 11:45:38;;;;;;;;;;;4.20;99.90;;;;;;5055024;28;19920;-84
2024/01/18 11:48:04;;;;;;;;;;;4.10;99.90;;;;;;5065868;28;19912;-84
2024/01/18 11:50:30;;;;;;;;;;;4.20;99.90;;;;;;5061854;28;19916;-83
2024/01/18 11:52:55;;;;;;;;;;;3.90;99.90;;;;;;5048574;28;19918;-84
2024/01/18 11:55:21;;;;;;;;;;;4.10;99.90;;;;;;5058942;28;19913;-84
2024/01/18 11:57:48;;;;;;;;;;;4.30;99.90;;;;;;5070522;28;19912;-83
2024/01/18 12:00:14;;;;;;;;;;;4.80;99.90;;;;;;5052019;28;19908;-83
2024/01/18 12:02:39;;;;;;;;;;;4.50;99.90;;;;;;5053070;28;19918;-83
2024/01/18 12:05:07;;;;;;;;;;;4.50;99.90;;;;;;5067069;28;19920;-83
2024/01/18 12:07:33;;;;;;;;;;;4.50;99.90;;;;;;5042173;28;19966;-83
2024/01/18 12:09:59;;;;;;;;;;;4.40;99.90;;;;;;5043442;28;19928;-83
2024/01/18 12:12:24;;;;;;;;;;;4.70;99.90;;;;;;5069322;28;20035;-83
2024/01/18 12:14:50;;;;;;;;;;;5.10;99.90;;;;;;5070628;28;20027;-82
2024/01/18 12:17:16;;;;;;;;;;;5.50;99.90;;;;;;5062183;28;19958;-82
2024/01/18 12:19:42;;;;;;;;;;;5.00;99.90;;;;;;5060525;28;19916;-82
2024/01/18 12:22:12;;;;;;;;;;;5.10;99.90;;;;;;5061417;28;19923;-80
2024/01/18 12:24:39;;;;;;;;;;;5.50;99.90;;;;;;5044619;28;19917;-80
2024/01/18 12:27:04;;;;;;;;;;;5.50;99.90;;;;;;5071939;28;19916;-83
2024/01/18 12:29:31;;;;;;;;;;;5.50;99.90;;;;;;5071044;28;20400;-80
2024/01/18 12:31:56;;;;;;;;;;;5.70;99.90;;;;;;5070867;28;19912;-80
2024/01/18 12:34:22;;;;;;;;;;;5.90;99.90;;;;;;5054128;28;19954;-81
2024/01/18 12:36:48;;;;;;;;;;;6.80;99.90;;;;;;5072074;28;19916;-83
2024/01/18 12:39:14;;;;;;;;;;;6.70;99.90;;;;;;5072411;28;19978;-83
2024/01/18 12:41:39;;;;;;;;;;;7.00;99.90;;;;;;5070694;28;19912;-84
2024/01/18 12:44:06;;;;;;;;;;;6.80;99.90;;;;;;5071789;28;19924;-82
2024/01/18 12:46:31;;;;;;;;;;;6.40;99.90;;;;;;5071705;28;20602;-86
2024/01/18 12:48:57;;;;;;;;;;;7.30;99.90;;;;;;5072643;28;19904;-86
2024/01/18 12:51:22;;;;;;;;;;;7.70;99.90;;;;;;5067602;28;19912;-84
2024/01/18 12:53:48;;;;;;;;;;;7.50;99.90;;;;;;5071155;28;20314;-86
2024/01/18 12:56:16;;;;;;;;;;;7.20;99.90;;;;;;5041735;28;20388;-85
2024/01/18 12:58:42;;;;;;;;;;;7.20;99.90;;;;;;5068645;28;19915;-86
2024/01/18 13:01:07;;;;;;;;;;;7.30;99.90;;;;;;5069534;28;19912;-86
2024/01/18 13:03:33;;;;;;;;;;;7.50;99.90;;;;;;5054431;28;19908;-86
2024/01/18 13:05:58;;;;;;;;;;;7.70;99.90;;;;;;5054413;28;20245;-86
2024/01/18 13:08:25;;;;;;;;;;;8.40;99.90;;;;;;5068008;28;20023;-86
2024/01/18 13:10:51;;;;;;;;;;;8.60;99.90;;;;;;5071532;28;19916;-86
2024/01/18 13:13:16;;;;;;;;;;;8.60;99.90;;;;;;5071987;28;19919;-86
2024/01/18 13:15:42;;;;;;;;;;;8.60;99.90;;;;;;5072031;28;19912;-86
2024/01/18 13:18:11;;;;;;;;;;;8.50;99.90;;;;;;5064159;28;19912;-86
2024/01/18 13:20:37;;;;;;;;;;;9.00;99.90;;;;;;5059067;28;20324;-86
2024/01/18 13:23:03;;;;;;;;;;;9.00;99.90;;;;;;5071623;28;19916;-85
2024/01/18 13:25:28;;;;;;;;;;;8.50;99.90;;;;;;5070134;28;19938;-86
2024/01/18 13:27:55;;;;;;;;;;;8.80;99.90;;;;;;5070490;28;19912;-87
2024/01/18 13:30:20;;;;;;;;;;;8.40;99.90;;;;;;5068207;28;20389;-85
2024/01/18 13:32:46;;;;;;;;;;;8.90;99.90;;;;;;5056291;28;19909;-86
2024/01/18 13:35:11;;;;;;;;;;;9.10;99.90;;;;;;5060439;28;19908;-86
2024/01/18 13:37:36;;;;;;;;;;;8.30;99.90;;;;;;5071184;28;19913;-83
2024/01/18 13:40:05;;;;;;;;;;;8.00;99.90;;;;;;5071237;28;19908;-86
2024/01/18 13:42:31;;;;;;;;;;;8.20;99.90;;;;;;5052252;28;19928;-85
2024/01/18 13:44:56;;;;;;;;;;;8.50;99.90;;;;;;5067287;28;19917;-86
2024/01/18 13:47:21;;;;;;;;;;;8.70;99.90;;;;;;5068116;28;19919;-86
2024/01/18 13:49:48;;;;;;;;;;;8.80;99.90;;;;;;5053113;28;19909;-86
2024/01/18 13:52:17;;;;;;;;;;;8.40;99.90;;;;;;5064482;28;19994;-84
2024/01/18 13:54:43;;;;;;;;;;;8.60;99.90;;;;;;5040678;28;20253;-83
2024/01/18 13:57:08;;;;;;;;;;;8.90;99.90;;;;;;5067076;28;20291;-84
2024/01/18 13:59:34;;;;;;;;;;;8.70;99.90;;;;;;5066383;28;19912;-85
2024/01/18 14:01:59;;;;;;;;;;;8.40;99.90;;;;;;5066151;28;19913;-85
2024/01/18 14:04:25;;;;;;;;;;;8.00;99.90;;;;;;5066933;28;19967;-84
2024/01/18 14:06:50;;;;;;;;;;;8.50;99.90;;;;;;5069216;28;19947;-86
2024/01/18 14:09:17;;;;;;;;;;;8.40;99.90;;;;;;5045049;28;19912;-86
2024/01/18 14:11:42;;;;;;;;;;;7.80;99.90;;;;;;5052797;28;19917;-82
2024/01/18 14:14:08;;;;;;;;;;;7.70;99.90;;;;;;5051025;28;19912;-83
2024/01/18 14:16:35;;;;;;;;;;;7.90;99.90;;;;;;5051160;28;19915;-84
2024/01/18 14:19:00;;;;;;;;;;;8.00;99.90;;;;;;5050972;28;19905;-83